createdAt,value
2023-05-09T00:01:32.126Z,101679.60
2023-05-09T00:06:42.040Z,101673.20
2023-05-09T00:11:51.815Z,101665.80
2023-05-09T00:17:01.738Z,101654.40
2023-05-09T00:22:13.314Z,101658.80
2023-05-09T00:27:23.211Z,101657.80
2023-05-09T00:32:33.587Z,101654.80
2023-05-09T00:37:43.252Z,101652.80
2023-05-09T00:42:53.058Z,101644.40
2023-05-09T00:48:03.032Z,101641.00
2023-05-09T00:53:13.208Z,101637.00
2023-05-09T00:58:24.046Z,101629.80
2023-05-09T01:03:35.298Z,101629.80
2023-05-09T01:08:54.394Z,101631.20
2023-05-09T01:14:17.745Z,101632.20
2023-05-09T01:19:58.852Z,101626.20
2023-05-09T01:25:30.588Z,101619.80
2023-05-09T01:30:43.719Z,101624.00
2023-05-09T01:35:59.167Z,101622.00
2023-05-09T01:41:10.987Z,101620.60
2023-05-09T01:46:23.460Z,101615.60
2023-05-09T01:51:34.700Z,101614.80
2023-05-09T01:56:46.669Z,101611.00
2023-05-09T02:01:57.066Z,101605.40
2023-05-09T02:07:07.574Z,101612.20
2023-05-09T02:12:17.204Z,101607.20
2023-05-09T02:17:26.869Z,101607.60
2023-05-09T02:22:36.998Z,101607.20
2023-05-09T02:27:48.546Z,101617.60
2023-05-09T02:33:05.267Z,101606.80
2023-05-09T02:38:15.909Z,101613.60
2023-05-09T02:43:25.491Z,101611.40
2023-05-09T02:48:35.196Z,101623.40
2023-05-09T02:53:45.332Z,101608.60
2023-05-09T02:58:54.962Z,101603.60
2023-05-09T03:04:05.003Z,101600.00
2023-05-09T03:09:14.817Z,101598.40
2023-05-09T03:14:24.575Z,101596.40
2023-05-09T03:19:34.267Z,101593.60
2023-05-09T03:24:44.484Z,101606.00
2023-05-09T03:29:54.311Z,101603.60
2023-05-09T03:35:04.452Z,101604.80
2023-05-09T03:40:15.729Z,101608.00
2023-05-09T03:45:25.880Z,101604.80
2023-05-09T03:50:35.862Z,101613.60
2023-05-09T03:55:45.919Z,101617.00
2023-05-09T04:00:55.731Z,101618.00
2023-05-09T04:06:06.453Z,101621.20
2023-05-09T04:11:16.080Z,101617.20
2023-05-09T04:16:26.002Z,101627.80
2023-05-09T04:21:35.640Z,101625.20
2023-05-09T04:26:46.468Z,101632.00
2023-05-09T04:31:56.760Z,101628.00
2023-05-09T04:37:06.742Z,101639.00
2023-05-09T04:42:16.658Z,101640.40
2023-05-09T04:47:26.500Z,101647.80
2023-05-09T04:52:36.367Z,101648.00
2023-05-09T04:57:45.980Z,101645.80
2023-05-09T05:02:56.121Z,101661.00
2023-05-09T05:08:06.175Z,101658.80
2023-05-09T05:13:16.062Z,101663.60
2023-05-09T05:18:25.718Z,101661.40
2023-05-09T05:23:35.561Z,101662.60
2023-05-09T05:28:45.291Z,101657.60
2023-05-09T05:33:54.943Z,101665.60
2023-05-09T05:39:04.837Z,101665.40
2023-05-09T05:44:17.256Z,101661.60
2023-05-09T05:49:27.399Z,101665.40
2023-05-09T05:54:37.212Z,101660.60
2023-05-09T05:59:48.197Z,101664.60
2023-05-09T06:04:58.170Z,101667.00
2023-05-09T06:10:09.753Z,101665.40
2023-05-09T06:15:19.993Z,101661.00
2023-05-09T06:20:29.637Z,101674.40
2023-05-09T06:25:39.496Z,101674.40
2023-05-09T06:30:49.315Z,101677.60
2023-05-09T06:36:00.615Z,101676.20
2023-05-09T06:41:10.367Z,101681.40
2023-05-09T06:46:20.175Z,101676.00
2023-05-09T06:51:29.982Z,101681.40
2023-05-09T06:56:40.058Z,101683.20
2023-05-09T07:01:49.791Z,101687.40
2023-05-09T07:07:00.888Z,101688.60
2023-05-09T07:12:11.394Z,101687.60
2023-05-09T07:17:24.037Z,101683.00
2023-05-09T07:22:37.000Z,101679.20
2023-05-09T07:27:47.979Z,101681.80
2023-05-09T07:32:57.936Z,101675.80
2023-05-09T07:38:07.772Z,101665.00
2023-05-09T07:43:17.532Z,101673.00
2023-05-09T07:48:27.667Z,101670.00
2023-05-09T07:53:40.186Z,101661.40
2023-05-09T07:58:50.387Z,101658.80
2023-05-09T08:04:00.116Z,101655.80
2023-05-09T08:09:12.249Z,101655.60
2023-05-09T08:14:21.969Z,101653.80
2023-05-09T08:19:31.781Z,101651.40
2023-05-09T08:24:41.783Z,101643.20
2023-05-09T08:29:51.622Z,101642.20
2023-05-09T08:35:01.237Z,101637.00
2023-05-09T08:40:13.188Z,101645.80
2023-05-09T08:45:30.717Z,101632.60
2023-05-09T08:50:40.771Z,101624.40
2023-05-09T08:55:51.112Z,101617.20
2023-05-09T09:01:05.048Z,101611.60
2023-05-09T09:06:15.837Z,101600.40
2023-05-09T09:11:26.279Z,101593.60
2023-05-09T09:16:38.232Z,101593.20
2023-05-09T09:21:51.463Z,101596.00
2023-05-09T09:27:06.562Z,101579.40
2023-05-09T09:32:18.882Z,101601.20
2023-05-09T09:37:28.867Z,101599.00
2023-05-09T09:42:48.516Z,101584.20
2023-05-09T09:47:58.364Z,101580.60
2023-05-09T09:53:08.292Z,101588.00
2023-05-09T09:58:25.510Z,101582.80
2023-05-09T10:03:43.925Z,101583.80
2023-05-09T10:08:53.669Z,101573.20
2023-05-09T10:14:03.416Z,101570.80
2023-05-09T10:19:14.600Z,101561.40
2023-05-09T10:24:35.181Z,101559.60
2023-05-09T10:29:51.561Z,101549.40
2023-05-09T10:35:14.176Z,101551.40
2023-05-09T10:40:25.015Z,101539.60
2023-05-09T10:45:34.965Z,101541.00
2023-05-09T10:50:45.115Z,101534.40
2023-05-09T10:55:59.480Z,101532.40
2023-05-09T11:01:11.029Z,101515.00
2023-05-09T11:06:52.417Z,101515.40
2023-05-09T11:12:09.873Z,101507.60
2023-05-09T11:17:32.451Z,101501.00
2023-05-09T11:22:47.670Z,101489.80
2023-05-09T11:28:02.580Z,101485.80
2023-05-09T11:33:30.454Z,101485.20
2023-05-09T11:38:49.106Z,101476.00
2023-05-09T11:44:01.458Z,101472.00
2023-05-09T11:49:13.491Z,101464.60
2023-05-09T11:54:25.234Z,101460.40
2023-05-09T11:59:36.881Z,101453.80
2023-05-09T12:04:46.860Z,101445.00
2023-05-09T12:09:57.393Z,101432.60
2023-05-09T12:15:11.688Z,101435.60
2023-05-09T12:20:21.554Z,101423.20
2023-05-09T12:25:31.303Z,101416.80
2023-05-09T12:30:41.354Z,101411.40
2023-05-09T12:36:03.523Z,101408.40
2023-05-09T12:41:33.219Z,101406.20
2023-05-09T12:46:54.407Z,101388.60
2023-05-09T12:52:06.172Z,101387.20
2023-05-09T12:57:30.076Z,101381.00
2023-05-09T13:02:44.071Z,101376.40
2023-05-09T13:07:58.575Z,101367.80
2023-05-09T13:13:16.893Z,101351.80
2023-05-09T13:18:27.171Z,101348.00
2023-05-09T13:23:37.071Z,101352.40
2023-05-09T13:28:46.853Z,101353.40
2023-05-09T13:33:56.631Z,101340.80
2023-05-09T13:39:06.660Z,101335.20
2023-05-09T13:44:16.734Z,101326.40
2023-05-09T13:49:27.368Z,101307.00
2023-05-09T13:54:37.357Z,101304.80
2023-05-09T13:59:47.489Z,101290.80
2023-05-09T14:04:59.266Z,101292.80
2023-05-09T14:10:12.294Z,101287.60
2023-05-09T14:15:22.678Z,101287.00
2023-05-09T14:20:34.205Z,101273.80
2023-05-09T14:25:43.865Z,101279.00
2023-05-09T14:30:53.931Z,101268.80
2023-05-09T14:36:04.469Z,101261.60
2023-05-09T14:41:15.120Z,101262.00
2023-05-09T14:46:25.183Z,101255.40
2023-05-09T14:51:35.303Z,101263.00
2023-05-09T14:56:45.236Z,101262.80
2023-05-09T15:01:54.952Z,101242.80
2023-05-09T15:07:06.258Z,101236.40
2023-05-09T15:12:16.276Z,101228.40
2023-05-09T15:17:26.824Z,101225.40
2023-05-09T15:22:36.483Z,101228.40
2023-05-09T15:27:46.657Z,101218.00
2023-05-09T15:32:56.384Z,101123.20
2023-05-09T15:38:05.941Z,101115.60
2023-05-09T15:43:16.034Z,101113.80
2023-05-09T15:48:27.571Z,101115.80
2023-05-09T15:53:37.202Z,101117.80
2023-05-09T15:58:46.740Z,101108.60
2023-05-09T16:03:57.108Z,101093.60
2023-05-09T16:09:07.149Z,101095.00
2023-05-09T16:14:16.922Z,101086.20
2023-05-09T16:19:26.858Z,101086.00
2023-05-09T16:24:37.650Z,101065.80
2023-05-09T16:29:47.985Z,101058.60
2023-05-09T16:34:57.514Z,101059.80
2023-05-09T16:40:08.293Z,101049.80
2023-05-09T16:45:18.312Z,101045.80
2023-05-09T16:50:29.532Z,101040.00
2023-05-09T16:55:40.150Z,101022.60
2023-05-09T17:00:49.891Z,101013.80
2023-05-09T17:05:59.892Z,101001.80
2023-05-09T17:11:10.037Z,101002.60
2023-05-09T17:16:20.025Z,100992.20
2023-05-09T17:21:29.784Z,100999.40
2023-05-09T17:26:39.538Z,101002.20
2023-05-09T17:31:49.287Z,101011.60
2023-05-09T17:37:01.272Z,101008.80
2023-05-09T17:42:12.610Z,101019.80
2023-05-09T17:47:22.339Z,101034.40
2023-05-09T17:52:32.395Z,101118.60
2023-05-09T17:57:43.288Z,101136.80
2023-05-09T18:02:53.362Z,101132.00
2023-05-09T18:08:03.858Z,101129.60
2023-05-09T18:13:14.166Z,101116.20
2023-05-09T18:18:23.927Z,101117.20
2023-05-09T18:23:33.635Z,101115.20
2023-05-09T18:28:43.402Z,101111.60
2023-05-09T18:33:53.100Z,101112.00
2023-05-09T18:39:02.739Z,101108.80
2023-05-09T18:44:12.540Z,101101.80
2023-05-09T18:49:22.825Z,101103.40
2023-05-09T18:54:32.448Z,101104.20
2023-05-09T18:59:42.230Z,101106.80
2023-05-09T19:04:52.724Z,101111.00
2023-05-09T19:10:04.178Z,101100.00
2023-05-09T19:15:15.741Z,101096.20
2023-05-09T19:20:26.126Z,101096.40
2023-05-09T19:25:37.339Z,101096.60
2023-05-09T19:30:47.118Z,101093.00
2023-05-09T19:35:56.740Z,101085.80
2023-05-09T19:41:06.388Z,101081.40
2023-05-09T19:46:16.126Z,101074.80
2023-05-09T19:51:25.795Z,101078.00
2023-05-09T19:56:35.730Z,101071.80
2023-05-09T20:01:45.733Z,101066.40
2023-05-09T20:06:55.580Z,101071.00
2023-05-09T20:12:07.537Z,101072.80
2023-05-09T20:17:17.068Z,101079.20
2023-05-09T20:22:26.748Z,101077.00
2023-05-09T20:27:37.676Z,101071.40
2023-05-09T20:32:47.716Z,101071.20
2023-05-09T20:37:57.502Z,101073.60
2023-05-09T20:43:07.355Z,101071.40
2023-05-09T20:48:16.947Z,101073.60
2023-05-09T20:53:27.842Z,101070.00
2023-05-09T20:58:38.142Z,101063.60
2023-05-09T21:03:47.872Z,101070.20
2023-05-09T21:08:57.729Z,101069.20
2023-05-09T21:14:07.825Z,101054.80
2023-05-09T21:19:17.376Z,101061.20
2023-05-09T21:24:26.947Z,101063.60
2023-05-09T21:29:36.516Z,101058.00
2023-05-09T21:34:46.181Z,101052.80
2023-05-09T21:39:55.733Z,101055.80
2023-05-09T21:45:05.665Z,101051.60
2023-05-09T21:50:16.040Z,101043.40
2023-05-09T21:55:26.160Z,101037.00
2023-05-09T22:00:35.726Z,101042.40
2023-05-09T22:05:45.351Z,101043.60
2023-05-09T22:10:55.062Z,101044.20
2023-05-09T22:16:05.113Z,101044.80
2023-05-09T22:21:14.963Z,101037.80
2023-05-09T22:26:24.561Z,101038.80
2023-05-09T22:31:34.515Z,101037.20
2023-05-09T22:36:44.231Z,101026.40
2023-05-09T22:41:54.126Z,101026.20
2023-05-09T22:47:03.776Z,101018.40
2023-05-09T22:52:13.741Z,101027.80
2023-05-09T22:57:24.072Z,101015.20
2023-05-09T23:02:33.684Z,101015.60
2023-05-09T23:07:43.277Z,101011.00
2023-05-09T23:12:52.919Z,101009.40
2023-05-09T23:18:02.772Z,101006.60
2023-05-09T23:23:12.884Z,101008.00
2023-05-09T23:28:25.522Z,100999.00
2023-05-09T23:33:35.708Z,100997.00
2023-05-09T23:38:45.442Z,101000.80
2023-05-09T23:43:55.110Z,100994.60
2023-05-09T23:49:05.040Z,100992.00
2023-05-09T23:54:14.617Z,100989.40
2023-05-09T23:59:24.239Z,100988.20
